sensor_id;sensor_type;location;lat;lon;timestamp;P1;durP1;ratioP1;P2;durP2;ratioP2
21258;SDS011;10787;53.364;-1.480;2023-05-07T00:02:29;20.27;;;15.02;;
21258;SDS011;10787;53.364;-1.480;2023-05-07T00:05:14;19.08;;;14.95;;
21258;SDS011;10787;53.364;-1.480;2023-05-07T00:07:59;18.63;;;15.00;;
21258;SDS011;10787;53.364;-1.480;2023-05-07T00:10:43;21.25;;;15.27;;
21258;SDS011;10787;53.364;-1.480;2023-05-07T00:13:28;21.38;;;15.45;;
21258;SDS011;10787;53.364;-1.480;2023-05-07T00:16:19;26.13;;;16.70;;
21258;SDS011;10787;53.364;-1.480;2023-05-07T00:19:03;22.50;;;16.15;;
21258;SDS011;10787;53.364;-1.480;2023-05-07T00:21:48;23.05;;;16.92;;
21258;SDS011;10787;53.364;-1.480;2023-05-07T00:24:32;25.00;;;16.73;;
21258;SDS011;10787;53.364;-1.480;2023-05-07T00:27:16;26.73;;;18.17;;
21258;SDS011;10787;53.364;-1.480;2023-05-07T00:30:01;24.00;;;17.45;;
21258;SDS011;10787;53.364;-1.480;2023-05-07T00:32:45;26.98;;;17.85;;
21258;SDS011;10787;53.364;-1.480;2023-05-07T00:35:32;23.75;;;16.58;;
21258;SDS011;10787;53.364;-1.480;2023-05-07T00:38:16;23.08;;;16.55;;
21258;SDS011;10787;53.364;-1.480;2023-05-07T00:41:00;24.77;;;17.15;;
21258;SDS011;10787;53.364;-1.480;2023-05-07T00:43:46;24.52;;;16.75;;
21258;SDS011;10787;53.364;-1.480;2023-05-07T00:46:30;21.67;;;15.77;;
21258;SDS011;10787;53.364;-1.480;2023-05-07T00:49:16;23.90;;;16.33;;
21258;SDS011;10787;53.364;-1.480;2023-05-07T00:52:01;22.15;;;16.02;;
21258;SDS011;10787;53.364;-1.480;2023-05-07T00:54:46;23.25;;;16.13;;
21258;SDS011;10787;53.364;-1.480;2023-05-07T00:57:37;24.30;;;16.90;;
21258;SDS011;10787;53.364;-1.480;2023-05-07T01:00:24;24.70;;;16.35;;
21258;SDS011;10787;53.364;-1.480;2023-05-07T01:03:08;22.58;;;15.88;;
21258;SDS011;10787;53.364;-1.480;2023-05-07T01:05:53;23.63;;;15.88;;
21258;SDS011;10787;53.364;-1.480;2023-05-07T01:08:39;23.23;;;15.57;;
21258;SDS011;10787;53.364;-1.480;2023-05-07T01:11:24;22.27;;;15.70;;
21258;SDS011;10787;53.364;-1.480;2023-05-07T01:14:09;22.33;;;15.85;;
21258;SDS011;10787;53.364;-1.480;2023-05-07T01:16:54;22.77;;;15.43;;
21258;SDS011;10787;53.364;-1.480;2023-05-07T01:19:39;21.60;;;15.65;;
21258;SDS011;10787;53.364;-1.480;2023-05-07T01:22:32;26.50;;;16.25;;
21258;SDS011;10787;53.364;-1.480;2023-05-07T01:25:21;24.90;;;16.67;;
21258;SDS011;10787;53.364;-1.480;2023-05-07T01:28:05;24.05;;;16.85;;
21258;SDS011;10787;53.364;-1.480;2023-05-07T01:30:51;27.20;;;17.60;;
21258;SDS011;10787;53.364;-1.480;2023-05-07T01:33:39;26.15;;;17.45;;
21258;SDS011;10787;53.364;-1.480;2023-05-07T01:36:26;25.70;;;16.92;;
21258;SDS011;10787;53.364;-1.480;2023-05-07T01:39:12;26.38;;;17.08;;
21258;SDS011;10787;53.364;-1.480;2023-05-07T01:41:58;25.85;;;17.15;;
21258;SDS011;10787;53.364;-1.480;2023-05-07T01:44:43;28.42;;;17.60;;
21258;SDS011;10787;53.364;-1.480;2023-05-07T01:47:28;27.10;;;17.77;;
21258;SDS011;10787;53.364;-1.480;2023-05-07T01:50:13;29.50;;;17.35;;
21258;SDS011;10787;53.364;-1.480;2023-05-07T01:53:01;24.70;;;16.27;;
21258;SDS011;10787;53.364;-1.480;2023-05-07T01:55:46;26.45;;;17.38;;
21258;SDS011;10787;53.364;-1.480;2023-05-07T01:58:30;27.38;;;17.25;;
21258;SDS011;10787;53.364;-1.480;2023-05-07T02:01:14;26.63;;;17.38;;
21258;SDS011;10787;53.364;-1.480;2023-05-07T02:03:58;26.92;;;17.88;;
21258;SDS011;10787;53.364;-1.480;2023-05-07T02:06:42;27.02;;;17.15;;
21258;SDS011;10787;53.364;-1.480;2023-05-07T02:09:27;31.20;;;17.92;;
21258;SDS011;10787;53.364;-1.480;2023-05-07T02:12:11;28.00;;;17.67;;
21258;SDS011;10787;53.364;-1.480;2023-05-07T02:14:55;25.75;;;16.90;;
21258;SDS011;10787;53.364;-1.480;2023-05-07T02:17:57;26.42;;;16.60;;
21258;SDS011;10787;53.364;-1.480;2023-05-07T02:20:49;26.52;;;17.05;;
21258;SDS011;10787;53.364;-1.480;2023-05-07T02:23:34;27.35;;;17.42;;
21258;SDS011;10787;53.364;-1.480;2023-05-07T02:26:18;28.30;;;17.65;;
21258;SDS011;10787;53.364;-1.480;2023-05-07T02:29:02;28.17;;;18.08;;
21258;SDS011;10787;53.364;-1.480;2023-05-07T02:31:46;31.15;;;18.60;;
21258;SDS011;10787;53.364;-1.480;2023-05-07T02:34:34;27.00;;;17.38;;
21258;SDS011;10787;53.364;-1.480;2023-05-07T02:37:18;28.63;;;17.55;;
21258;SDS011;10787;53.364;-1.480;2023-05-07T02:40:03;25.25;;;16.58;;
21258;SDS011;10787;53.364;-1.480;2023-05-07T02:42:47;28.58;;;17.67;;
21258;SDS011;10787;53.364;-1.480;2023-05-07T02:45:32;27.50;;;17.00;;
21258;SDS011;10787;53.364;-1.480;2023-05-07T02:48:17;30.80;;;17.90;;
21258;SDS011;10787;53.364;-1.480;2023-05-07T02:51:01;28.80;;;17.73;;
21258;SDS011;10787;53.364;-1.480;2023-05-07T02:53:46;30.08;;;17.67;;
21258;SDS011;10787;53.364;-1.480;2023-05-07T02:56:31;29.02;;;17.98;;
21258;SDS011;10787;53.364;-1.480;2023-05-07T02:59:15;32.28;;;18.40;;
21258;SDS011;10787;53.364;-1.480;2023-05-07T03:01:59;29.92;;;18.02;;
21258;SDS011;10787;53.364;-1.480;2023-05-07T03:04:43;31.73;;;18.38;;
21258;SDS011;10787;53.364;-1.480;2023-05-07T03:07:27;33.30;;;17.80;;
21258;SDS011;10787;53.364;-1.480;2023-05-07T03:10:11;29.85;;;17.73;;
21258;SDS011;10787;53.364;-1.480;2023-05-07T03:12:56;33.30;;;18.30;;
21258;SDS011;10787;53.364;-1.480;2023-05-07T03:15:41;34.33;;;17.70;;
21258;SDS011;10787;53.364;-1.480;2023-05-07T03:18:25;34.15;;;18.33;;
21258;SDS011;10787;53.364;-1.480;2023-05-07T03:21:10;32.90;;;18.88;;
21258;SDS011;10787;53.364;-1.480;2023-05-07T03:23:54;32.15;;;17.55;;
21258;SDS011;10787;53.364;-1.480;2023-05-07T03:26:39;26.90;;;15.88;;
21258;SDS011;10787;53.364;-1.480;2023-05-07T03:29:23;32.53;;;17.75;;
21258;SDS011;10787;53.364;-1.480;2023-05-07T03:32:07;29.77;;;15.68;;
21258;SDS011;10787;53.364;-1.480;2023-05-07T03:34:51;29.35;;;16.70;;
21258;SDS011;10787;53.364;-1.480;2023-05-07T03:37:36;28.48;;;15.63;;
21258;SDS011;10787;53.364;-1.480;2023-05-07T03:40:21;27.73;;;15.90;;
21258;SDS011;10787;53.364;-1.480;2023-05-07T03:43:05;30.08;;;16.27;;
21258;SDS011;10787;53.364;-1.480;2023-05-07T03:45:50;27.25;;;15.63;;
21258;SDS011;10787;53.364;-1.480;2023-05-07T03:48:34;29.05;;;16.50;;
21258;SDS011;10787;53.364;-1.480;2023-05-07T03:51:18;28.92;;;16.45;;
21258;SDS011;10787;53.364;-1.480;2023-05-07T03:54:03;29.73;;;17.00;;
21258;SDS011;10787;53.364;-1.480;2023-05-07T03:56:48;30.95;;;17.02;;
21258;SDS011;10787;53.364;-1.480;2023-05-07T03:59:32;32.22;;;17.08;;
21258;SDS011;10787;53.364;-1.480;2023-05-07T04:02:16;34.33;;;17.50;;
21258;SDS011;10787;53.364;-1.480;2023-05-07T04:05:00;29.88;;;16.48;;
21258;SDS011;10787;53.364;-1.480;2023-05-07T04:07:44;32.42;;;17.10;;
21258;SDS011;10787;53.364;-1.480;2023-05-07T04:10:29;30.77;;;16.38;;
21258;SDS011;10787;53.364;-1.480;2023-05-07T04:13:13;31.55;;;16.85;;
21258;SDS011;10787;53.364;-1.480;2023-05-07T04:15:57;31.20;;;16.20;;
21258;SDS011;10787;53.364;-1.480;2023-05-07T04:18:41;30.45;;;16.48;;
21258;SDS011;10787;53.364;-1.480;2023-05-07T04:21:26;31.55;;;16.85;;
21258;SDS011;10787;53.364;-1.480;2023-05-07T04:24:10;29.73;;;16.05;;
21258;SDS011;10787;53.364;-1.480;2023-05-07T04:26:55;28.13;;;15.88;;
21258;SDS011;10787;53.364;-1.480;2023-05-07T04:29:39;28.40;;;16.08;;
21258;SDS011;10787;53.364;-1.480;2023-05-07T04:32:25;26.88;;;15.35;;
21258;SDS011;10787;53.364;-1.480;2023-05-07T04:35:10;31.63;;;16.83;;
21258;SDS011;10787;53.364;-1.480;2023-05-07T04:37:54;29.30;;;15.98;;
21258;SDS011;10787;53.364;-1.480;2023-05-07T04:40:39;28.55;;;16.40;;
21258;SDS011;10787;53.364;-1.480;2023-05-07T04:43:23;29.17;;;16.17;;
21258;SDS011;10787;53.364;-1.480;2023-05-07T04:46:08;27.10;;;15.63;;
21258;SDS011;10787;53.364;-1.480;2023-05-07T04:48:52;29.77;;;16.35;;
21258;SDS011;10787;53.364;-1.480;2023-05-07T04:51:37;30.45;;;15.52;;
21258;SDS011;10787;53.364;-1.480;2023-05-07T04:54:22;29.92;;;16.08;;
21258;SDS011;10787;53.364;-1.480;2023-05-07T04:57:06;29.88;;;16.42;;
21258;SDS011;10787;53.364;-1.480;2023-05-07T04:59:50;28.38;;;15.85;;
21258;SDS011;10787;53.364;-1.480;2023-05-07T05:02:34;29.08;;;16.80;;
21258;SDS011;10787;53.364;-1.480;2023-05-07T05:05:19;30.02;;;16.52;;
21258;SDS011;10787;53.364;-1.480;2023-05-07T05:08:13;31.73;;;16.95;;
21258;SDS011;10787;53.364;-1.480;2023-05-07T05:10:57;10.52;;;7.28;;
21258;SDS011;10787;53.364;-1.480;2023-05-07T05:13:51;9.07;;;5.78;;
21258;SDS011;10787;53.364;-1.480;2023-05-07T05:16:35;7.88;;;6.22;;
21258;SDS011;10787;53.364;-1.480;2023-05-07T05:19:19;10.60;;;6.97;;
21258;SDS011;10787;53.364;-1.480;2023-05-07T05:22:03;12.68;;;8.75;;
21258;SDS011;10787;53.364;-1.480;2023-05-07T05:24:48;13.93;;;9.90;;
21258;SDS011;10787;53.364;-1.480;2023-05-07T05:27:33;17.02;;;11.10;;
21258;SDS011;10787;53.364;-1.480;2023-05-07T05:30:18;16.80;;;10.70;;
21258;SDS011;10787;53.364;-1.480;2023-05-07T05:33:02;18.25;;;10.35;;
21258;SDS011;10787;53.364;-1.480;2023-05-07T05:35:47;15.75;;;10.25;;
21258;SDS011;10787;53.364;-1.480;2023-05-07T05:38:33;11.80;;;8.30;;
21258;SDS011;10787;53.364;-1.480;2023-05-07T05:41:17;9.30;;;6.60;;
21258;SDS011;10787;53.364;-1.480;2023-05-07T05:44:01;11.07;;;7.18;;
21258;SDS011;10787;53.364;-1.480;2023-05-07T05:46:45;9.55;;;6.55;;
21258;SDS011;10787;53.364;-1.480;2023-05-07T05:49:30;7.60;;;5.38;;
21258;SDS011;10787;53.364;-1.480;2023-05-07T05:52:14;6.95;;;5.45;;
21258;SDS011;10787;53.364;-1.480;2023-05-07T05:55:00;7.80;;;6.00;;
21258;SDS011;10787;53.364;-1.480;2023-05-07T05:57:44;6.28;;;5.00;;
21258;SDS011;10787;53.364;-1.480;2023-05-07T06:00:29;6.30;;;4.90;;
21258;SDS011;10787;53.364;-1.480;2023-05-07T06:03:13;5.78;;;4.90;;
21258;SDS011;10787;53.364;-1.480;2023-05-07T06:05:58;7.47;;;5.60;;
21258;SDS011;10787;53.364;-1.480;2023-05-07T06:08:43;7.68;;;5.53;;
21258;SDS011;10787;53.364;-1.480;2023-05-07T06:11:28;5.40;;;4.60;;
21258;SDS011;10787;53.364;-1.480;2023-05-07T06:14:12;5.55;;;4.65;;
21258;SDS011;10787;53.364;-1.480;2023-05-07T06:16:56;5.88;;;4.65;;
21258;SDS011;10787;53.364;-1.480;2023-05-07T06:19:40;6.10;;;5.10;;
21258;SDS011;10787;53.364;-1.480;2023-05-07T06:22:25;6.15;;;4.95;;
21258;SDS011;10787;53.364;-1.480;2023-05-07T06:25:09;7.65;;;5.55;;
21258;SDS011;10787;53.364;-1.480;2023-05-07T06:27:54;6.18;;;5.20;;
21258;SDS011;10787;53.364;-1.480;2023-05-07T06:30:38;7.22;;;5.38;;
21258;SDS011;10787;53.364;-1.480;2023-05-07T06:33:23;6.97;;;5.68;;
21258;SDS011;10787;53.364;-1.480;2023-05-07T06:36:08;6.63;;;5.57;;
21258;SDS011;10787;53.364;-1.480;2023-05-07T06:38:52;7.13;;;5.32;;
21258;SDS011;10787;53.364;-1.480;2023-05-07T06:41:36;7.15;;;5.45;;
21258;SDS011;10787;53.364;-1.480;2023-05-07T06:44:21;6.53;;;5.70;;
21258;SDS011;10787;53.364;-1.480;2023-05-07T06:47:05;8.70;;;5.78;;
21258;SDS011;10787;53.364;-1.480;2023-05-07T06:49:49;6.78;;;5.70;;
21258;SDS011;10787;53.364;-1.480;2023-05-07T06:52:34;7.25;;;5.93;;
21258;SDS011;10787;53.364;-1.480;2023-05-07T06:55:19;8.38;;;6.28;;
21258;SDS011;10787;53.364;-1.480;2023-05-07T06:58:03;7.13;;;6.15;;
21258;SDS011;10787;53.364;-1.480;2023-05-07T07:00:49;7.05;;;6.05;;
21258;SDS011;10787;53.364;-1.480;2023-05-07T07:03:34;6.90;;;5.82;;
21258;SDS011;10787;53.364;-1.480;2023-05-07T07:06:18;7.00;;;5.78;;
21258;SDS011;10787;53.364;-1.480;2023-05-07T07:09:03;7.55;;;6.07;;
21258;SDS011;10787;53.364;-1.480;2023-05-07T07:11:47;7.88;;;7.00;;
21258;SDS011;10787;53.364;-1.480;2023-05-07T07:14:31;9.32;;;7.00;;
21258;SDS011;10787;53.364;-1.480;2023-05-07T07:17:15;7.60;;;6.45;;
21258;SDS011;10787;53.364;-1.480;2023-05-07T07:19:59;8.73;;;6.82;;
21258;SDS011;10787;53.364;-1.480;2023-05-07T07:22:43;8.18;;;6.65;;
21258;SDS011;10787;53.364;-1.480;2023-05-07T07:25:27;8.32;;;6.40;;
21258;SDS011;10787;53.364;-1.480;2023-05-07T07:28:11;8.20;;;6.85;;
21258;SDS011;10787;53.364;-1.480;2023-05-07T07:30:56;8.60;;;6.93;;
21258;SDS011;10787;53.364;-1.480;2023-05-07T07:33:40;8.90;;;6.95;;
21258;SDS011;10787;53.364;-1.480;2023-05-07T07:36:25;8.93;;;6.95;;
21258;SDS011;10787;53.364;-1.480;2023-05-07T07:39:10;9.38;;;6.93;;
21258;SDS011;10787;53.364;-1.480;2023-05-07T07:41:54;8.93;;;6.50;;
21258;SDS011;10787;53.364;-1.480;2023-05-07T07:44:39;8.25;;;6.68;;
21258;SDS011;10787;53.364;-1.480;2023-05-07T07:47:23;9.32;;;7.28;;
21258;SDS011;10787;53.364;-1.480;2023-05-07T07:50:07;9.07;;;6.68;;
21258;SDS011;10787;53.364;-1.480;2023-05-07T07:52:52;10.20;;;6.40;;
21258;SDS011;10787;53.364;-1.480;2023-05-07T07:55:40;8.35;;;6.70;;
21258;SDS011;10787;53.364;-1.480;2023-05-07T07:58:24;6.93;;;6.22;;
21258;SDS011;10787;53.364;-1.480;2023-05-07T08:01:08;7.20;;;6.00;;
21258;SDS011;10787;53.364;-1.480;2023-05-07T08:03:53;7.50;;;5.70;;
21258;SDS011;10787;53.364;-1.480;2023-05-07T08:06:38;6.60;;;5.88;;
21258;SDS011;10787;53.364;-1.480;2023-05-07T08:09:22;7.07;;;5.57;;
21258;SDS011;10787;53.364;-1.480;2023-05-07T08:12:07;6.10;;;5.18;;
21258;SDS011;10787;53.364;-1.480;2023-05-07T08:14:51;7.63;;;5.75;;
21258;SDS011;10787;53.364;-1.480;2023-05-07T08:17:36;7.50;;;5.65;;
21258;SDS011;10787;53.364;-1.480;2023-05-07T08:20:20;7.95;;;5.57;;
21258;SDS011;10787;53.364;-1.480;2023-05-07T08:23:05;7.00;;;5.47;;
21258;SDS011;10787;53.364;-1.480;2023-05-07T08:25:52;6.57;;;5.28;;
21258;SDS011;10787;53.364;-1.480;2023-05-07T08:28:37;6.20;;;5.00;;
21258;SDS011;10787;53.364;-1.480;2023-05-07T08:31:21;5.43;;;4.50;;
21258;SDS011;10787;53.364;-1.480;2023-05-07T08:34:05;5.75;;;4.60;;
21258;SDS011;10787;53.364;-1.480;2023-05-07T08:36:50;6.10;;;4.35;;
21258;SDS011;10787;53.364;-1.480;2023-05-07T08:39:34;5.63;;;4.50;;
21258;SDS011;10787;53.364;-1.480;2023-05-07T08:42:18;5.40;;;4.40;;
21258;SDS011;10787;53.364;-1.480;2023-05-07T08:45:08;5.75;;;4.68;;
21258;SDS011;10787;53.364;-1.480;2023-05-07T08:47:56;5.70;;;4.43;;
21258;SDS011;10787;53.364;-1.480;2023-05-07T08:50:51;4.55;;;3.90;;
21258;SDS011;10787;53.364;-1.480;2023-05-07T08:53:36;4.32;;;3.90;;
21258;SDS011;10787;53.364;-1.480;2023-05-07T08:56:24;5.00;;;3.85;;
21258;SDS011;10787;53.364;-1.480;2023-05-07T08:59:09;6.10;;;4.20;;
21258;SDS011;10787;53.364;-1.480;2023-05-07T09:01:54;5.22;;;3.58;;
21258;SDS011;10787;53.364;-1.480;2023-05-07T09:04:38;5.00;;;3.92;;
21258;SDS011;10787;53.364;-1.480;2023-05-07T09:07:23;4.25;;;3.85;;
21258;SDS011;10787;53.364;-1.480;2023-05-07T09:10:09;4.32;;;3.67;;
21258;SDS011;10787;53.364;-1.480;2023-05-07T09:12:53;5.88;;;4.43;;
21258;SDS011;10787;53.364;-1.480;2023-05-07T09:15:37;4.15;;;3.75;;
21258;SDS011;10787;53.364;-1.480;2023-05-07T09:18:23;5.05;;;3.25;;
21258;SDS011;10787;53.364;-1.480;2023-05-07T09:21:15;3.90;;;3.28;;
21258;SDS011;10787;53.364;-1.480;2023-05-07T09:24:02;4.03;;;3.63;;
21258;SDS011;10787;53.364;-1.480;2023-05-07T09:26:47;4.60;;;3.65;;
21258;SDS011;10787;53.364;-1.480;2023-05-07T09:29:31;4.53;;;3.20;;
21258;SDS011;10787;53.364;-1.480;2023-05-07T09:32:21;4.10;;;3.70;;
21258;SDS011;10787;53.364;-1.480;2023-05-07T09:35:05;5.80;;;4.05;;
21258;SDS011;10787;53.364;-1.480;2023-05-07T09:37:58;5.18;;;4.07;;
21258;SDS011;10787;53.364;-1.480;2023-05-07T09:40:43;4.88;;;3.95;;
21258;SDS011;10787;53.364;-1.480;2023-05-07T09:43:31;4.70;;;3.95;;
21258;SDS011;10787;53.364;-1.480;2023-05-07T09:46:16;6.03;;;4.20;;
21258;SDS011;10787;53.364;-1.480;2023-05-07T09:49:07;6.18;;;4.80;;
21258;SDS011;10787;53.364;-1.480;2023-05-07T09:51:59;6.63;;;5.15;;
21258;SDS011;10787;53.364;-1.480;2023-05-07T09:54:45;5.50;;;4.18;;
21258;SDS011;10787;53.364;-1.480;2023-05-07T09:57:31;4.53;;;4.10;;
21258;SDS011;10787;53.364;-1.480;2023-05-07T10:00:19;6.22;;;4.30;;
21258;SDS011;10787;53.364;-1.480;2023-05-07T10:03:04;7.10;;;4.20;;
21258;SDS011;10787;53.364;-1.480;2023-05-07T10:05:50;6.00;;;4.55;;
21258;SDS011;10787;53.364;-1.480;2023-05-07T10:08:35;4.70;;;4.20;;
21258;SDS011;10787;53.364;-1.480;2023-05-07T10:11:20;6.00;;;4.50;;
21258;SDS011;10787;53.364;-1.480;2023-05-07T10:14:05;5.05;;;4.20;;
21258;SDS011;10787;53.364;-1.480;2023-05-07T10:16:50;5.32;;;4.28;;
21258;SDS011;10787;53.364;-1.480;2023-05-07T10:19:37;5.50;;;3.92;;
21258;SDS011;10787;53.364;-1.480;2023-05-07T10:22:22;4.63;;;3.83;;
21258;SDS011;10787;53.364;-1.480;2023-05-07T10:25:31;4.93;;;3.67;;
21258;SDS011;10787;53.364;-1.480;2023-05-07T10:28:15;5.80;;;3.50;;
21258;SDS011;10787;53.364;-1.480;2023-05-07T10:34:12;4.72;;;3.75;;
21258;SDS011;10787;53.364;-1.480;2023-05-07T10:37:03;4.25;;;3.55;;
21258;SDS011;10787;53.364;-1.480;2023-05-07T10:39:48;5.70;;;3.80;;
21258;SDS011;10787;53.364;-1.480;2023-05-07T10:42:32;5.13;;;3.90;;
21258;SDS011;10787;53.364;-1.480;2023-05-07T10:45:17;4.32;;;3.50;;
21258;SDS011;10787;53.364;-1.480;2023-05-07T10:51:17;4.78;;;3.60;;
21258;SDS011;10787;53.364;-1.480;2023-05-07T10:56:56;7.55;;;3.63;;
21258;SDS011;10787;53.364;-1.480;2023-05-07T10:59:40;5.22;;;3.22;;
21258;SDS011;10787;53.364;-1.480;2023-05-07T11:05:43;6.25;;;3.60;;
21258;SDS011;10787;53.364;-1.480;2023-05-07T11:08:41;5.47;;;3.95;;
21258;SDS011;10787;53.364;-1.480;2023-05-07T11:11:49;6.03;;;3.80;;
21258;SDS011;10787;53.364;-1.480;2023-05-07T11:17:27;4.38;;;3.53;;
21258;SDS011;10787;53.364;-1.480;2023-05-07T11:20:15;4.95;;;3.25;;
21258;SDS011;10787;53.364;-1.480;2023-05-07T11:23:00;5.85;;;3.38;;
21258;SDS011;10787;53.364;-1.480;2023-05-07T11:25:45;5.03;;;3.25;;
21258;SDS011;10787;53.364;-1.480;2023-05-07T11:28:30;4.38;;;2.60;;
21258;SDS011;10787;53.364;-1.480;2023-05-07T11:31:15;4.25;;;2.97;;
21258;SDS011;10787;53.364;-1.480;2023-05-07T11:34:06;6.13;;;3.10;;
21258;SDS011;10787;53.364;-1.480;2023-05-07T11:36:51;4.18;;;2.83;;
21258;SDS011;10787;53.364;-1.480;2023-05-07T11:39:36;3.47;;;2.50;;
21258;SDS011;10787;53.364;-1.480;2023-05-07T11:45:22;3.15;;;2.30;;
21258;SDS011;10787;53.364;-1.480;2023-05-07T11:48:08;3.33;;;2.40;;
21258;SDS011;10787;53.364;-1.480;2023-05-07T11:51:03;4.68;;;2.30;;
21258;SDS011;10787;53.364;-1.480;2023-05-07T11:53:49;4.20;;;2.20;;
21258;SDS011;10787;53.364;-1.480;2023-05-07T11:56:34;3.00;;;2.28;;
21258;SDS011;10787;53.364;-1.480;2023-05-07T11:59:19;5.35;;;2.40;;
21258;SDS011;10787;53.364;-1.480;2023-05-07T12:02:03;2.97;;;2.38;;
21258;SDS011;10787;53.364;-1.480;2023-05-07T12:04:47;3.63;;;2.13;;
21258;SDS011;10787;53.364;-1.480;2023-05-07T12:07:35;5.85;;;2.08;;
21258;SDS011;10787;53.364;-1.480;2023-05-07T12:10:20;2.80;;;2.00;;
21258;SDS011;10787;53.364;-1.480;2023-05-07T12:13:13;2.55;;;2.00;;
21258;SDS011;10787;53.364;-1.480;2023-05-07T12:16:01;5.65;;;1.90;;
21258;SDS011;10787;53.364;-1.480;2023-05-07T12:18:49;3.78;;;2.00;;
21258;SDS011;10787;53.364;-1.480;2023-05-07T12:21:36;3.35;;;2.00;;
21258;SDS011;10787;53.364;-1.480;2023-05-07T12:24:20;4.22;;;2.03;;
21258;SDS011;10787;53.364;-1.480;2023-05-07T12:27:05;3.28;;;2.05;;
21258;SDS011;10787;53.364;-1.480;2023-05-07T12:29:50;3.08;;;1.70;;
21258;SDS011;10787;53.364;-1.480;2023-05-07T12:32:34;3.88;;;1.80;;
21258;SDS011;10787;53.364;-1.480;2023-05-07T12:35:27;3.38;;;1.95;;
21258;SDS011;10787;53.364;-1.480;2023-05-07T12:38:13;2.53;;;1.70;;
21258;SDS011;10787;53.364;-1.480;2023-05-07T12:41:00;4.85;;;1.70;;
21258;SDS011;10787;53.364;-1.480;2023-05-07T12:43:44;3.20;;;1.63;;
21258;SDS011;10787;53.364;-1.480;2023-05-07T12:46:29;3.55;;;1.73;;
21258;SDS011;10787;53.364;-1.480;2023-05-07T12:49:14;3.22;;;1.90;;
21258;SDS011;10787;53.364;-1.480;2023-05-07T12:51:58;3.20;;;1.60;;
21258;SDS011;10787;53.364;-1.480;2023-05-07T12:54:43;2.97;;;1.80;;
21258;SDS011;10787;53.364;-1.480;2023-05-07T12:57:28;4.07;;;1.55;;
21258;SDS011;10787;53.364;-1.480;2023-05-07T13:00:12;4.97;;;1.80;;
21258;SDS011;10787;53.364;-1.480;2023-05-07T13:02:58;4.32;;;2.00;;
21258;SDS011;10787;53.364;-1.480;2023-05-07T13:05:42;4.50;;;1.83;;
21258;SDS011;10787;53.364;-1.480;2023-05-07T13:08:28;4.15;;;1.90;;
21258;SDS011;10787;53.364;-1.480;2023-05-07T13:11:14;3.63;;;1.70;;
21258;SDS011;10787;53.364;-1.480;2023-05-07T13:13:58;3.25;;;1.85;;
21258;SDS011;10787;53.364;-1.480;2023-05-07T13:16:43;4.35;;;1.75;;
21258;SDS011;10787;53.364;-1.480;2023-05-07T13:19:27;2.97;;;1.90;;
21258;SDS011;10787;53.364;-1.480;2023-05-07T13:22:11;4.75;;;2.40;;
21258;SDS011;10787;53.364;-1.480;2023-05-07T13:24:55;4.82;;;2.28;;
21258;SDS011;10787;53.364;-1.480;2023-05-07T13:27:40;5.00;;;2.47;;
21258;SDS011;10787;53.364;-1.480;2023-05-07T13:30:24;4.10;;;2.20;;
21258;SDS011;10787;53.364;-1.480;2023-05-07T13:33:09;3.20;;;2.00;;
21258;SDS011;10787;53.364;-1.480;2023-05-07T13:35:54;4.25;;;2.20;;
21258;SDS011;10787;53.364;-1.480;2023-05-07T13:38:40;4.97;;;2.15;;
21258;SDS011;10787;53.364;-1.480;2023-05-07T13:41:24;4.68;;;1.92;;
21258;SDS011;10787;53.364;-1.480;2023-05-07T13:44:09;3.38;;;1.90;;
21258;SDS011;10787;53.364;-1.480;2023-05-07T13:46:53;5.07;;;2.03;;
21258;SDS011;10787;53.364;-1.480;2023-05-07T13:49:38;4.13;;;2.15;;
21258;SDS011;10787;53.364;-1.480;2023-05-07T13:52:23;4.57;;;2.25;;
21258;SDS011;10787;53.364;-1.480;2023-05-07T13:55:07;3.55;;;1.88;;
21258;SDS011;10787;53.364;-1.480;2023-05-07T13:57:55;4.28;;;2.03;;
21258;SDS011;10787;53.364;-1.480;2023-05-07T14:00:41;4.07;;;2.17;;
21258;SDS011;10787;53.364;-1.480;2023-05-07T14:03:25;2.97;;;2.03;;
21258;SDS011;10787;53.364;-1.480;2023-05-07T14:06:09;3.67;;;2.00;;
21258;SDS011;10787;53.364;-1.480;2023-05-07T14:08:53;3.45;;;1.70;;
21258;SDS011;10787;53.364;-1.480;2023-05-07T14:11:38;5.50;;;2.10;;
21258;SDS011;10787;53.364;-1.480;2023-05-07T14:14:23;3.83;;;2.00;;
21258;SDS011;10787;53.364;-1.480;2023-05-07T14:17:08;3.30;;;1.80;;
21258;SDS011;10787;53.364;-1.480;2023-05-07T14:19:53;4.20;;;2.33;;
21258;SDS011;10787;53.364;-1.480;2023-05-07T14:22:38;5.10;;;2.25;;
21258;SDS011;10787;53.364;-1.480;2023-05-07T14:25:22;3.40;;;1.73;;
21258;SDS011;10787;53.364;-1.480;2023-05-07T14:28:06;3.85;;;1.90;;
21258;SDS011;10787;53.364;-1.480;2023-05-07T14:30:51;5.28;;;2.22;;
21258;SDS011;10787;53.364;-1.480;2023-05-07T14:33:35;2.75;;;1.80;;
21258;SDS011;10787;53.364;-1.480;2023-05-07T14:36:19;3.70;;;1.67;;
21258;SDS011;10787;53.364;-1.480;2023-05-07T14:39:04;3.97;;;2.08;;
21258;SDS011;10787;53.364;-1.480;2023-05-07T14:41:49;3.00;;;1.88;;
21258;SDS011;10787;53.364;-1.480;2023-05-07T14:44:34;4.40;;;1.88;;
21258;SDS011;10787;53.364;-1.480;2023-05-07T14:47:19;2.55;;;1.50;;
21258;SDS011;10787;53.364;-1.480;2023-05-07T14:50:03;3.28;;;1.80;;
21258;SDS011;10787;53.364;-1.480;2023-05-07T14:52:47;3.83;;;1.90;;
21258;SDS011;10787;53.364;-1.480;2023-05-07T14:55:31;2.75;;;1.83;;
21258;SDS011;10787;53.364;-1.480;2023-05-07T14:58:15;2.85;;;1.77;;
21258;SDS011;10787;53.364;-1.480;2023-05-07T15:01:00;2.95;;;1.92;;
21258;SDS011;10787;53.364;-1.480;2023-05-07T15:03:45;4.20;;;1.70;;
21258;SDS011;10787;53.364;-1.480;2023-05-07T15:06:29;4.03;;;1.95;;
21258;SDS011;10787;53.364;-1.480;2023-05-07T15:09:13;2.42;;;1.80;;
21258;SDS011;10787;53.364;-1.480;2023-05-07T15:11:58;3.05;;;1.90;;
21258;SDS011;10787;53.364;-1.480;2023-05-07T15:14:42;4.35;;;2.30;;
21258;SDS011;10787;53.364;-1.480;2023-05-07T15:17:27;3.45;;;2.15;;
21258;SDS011;10787;53.364;-1.480;2023-05-07T15:20:11;3.60;;;2.20;;
21258;SDS011;10787;53.364;-1.480;2023-05-07T15:22:56;3.72;;;2.10;;
21258;SDS011;10787;53.364;-1.480;2023-05-07T15:25:40;5.07;;;2.28;;
21258;SDS011;10787;53.364;-1.480;2023-05-07T15:28:24;2.70;;;2.20;;
21258;SDS011;10787;53.364;-1.480;2023-05-07T15:31:09;3.50;;;2.15;;
21258;SDS011;10787;53.364;-1.480;2023-05-07T15:33:53;3.42;;;2.22;;
21258;SDS011;10787;53.364;-1.480;2023-05-07T15:36:38;4.22;;;2.30;;
21258;SDS011;10787;53.364;-1.480;2023-05-07T15:39:22;3.38;;;2.20;;
21258;SDS011;10787;53.364;-1.480;2023-05-07T15:42:06;4.82;;;2.20;;
21258;SDS011;10787;53.364;-1.480;2023-05-07T15:44:50;3.55;;;2.28;;
21258;SDS011;10787;53.364;-1.480;2023-05-07T15:47:36;3.40;;;2.40;;
21258;SDS011;10787;53.364;-1.480;2023-05-07T15:50:20;4.55;;;2.60;;
21258;SDS011;10787;53.364;-1.480;2023-05-07T15:53:05;3.92;;;2.65;;
21258;SDS011;10787;53.364;-1.480;2023-05-07T15:55:49;4.80;;;2.80;;
21258;SDS011;10787;53.364;-1.480;2023-05-07T15:58:34;4.57;;;2.78;;
21258;SDS011;10787;53.364;-1.480;2023-05-07T16:01:18;4.25;;;2.50;;
21258;SDS011;10787;53.364;-1.480;2023-05-07T16:04:03;2.95;;;2.20;;
21258;SDS011;10787;53.364;-1.480;2023-05-07T16:06:47;3.25;;;2.05;;
21258;SDS011;10787;53.364;-1.480;2023-05-07T16:09:31;4.25;;;2.25;;
21258;SDS011;10787;53.364;-1.480;2023-05-07T16:12:16;2.80;;;2.00;;
21258;SDS011;10787;53.364;-1.480;2023-05-07T16:15:01;3.95;;;1.95;;
21258;SDS011;10787;53.364;-1.480;2023-05-07T16:17:46;4.32;;;2.10;;
21258;SDS011;10787;53.364;-1.480;2023-05-07T16:20:32;4.50;;;1.92;;
21258;SDS011;10787;53.364;-1.480;2023-05-07T16:23:16;4.28;;;1.95;;
21258;SDS011;10787;53.364;-1.480;2023-05-07T16:26:01;3.45;;;1.73;;
21258;SDS011;10787;53.364;-1.480;2023-05-07T16:28:47;3.90;;;1.67;;
21258;SDS011;10787;53.364;-1.480;2023-05-07T16:31:32;4.50;;;2.17;;